NCAR-RAP Real-Time Weather Data

Output produced by METARs form (06 May 2021  16:26 UTC)
found at http://weather.rap.ucar.edu/surface/
 
KTPA 061553Z 26007G17KT 10SM SCT040 30/23 A3005 RMK AO2 SLP176 T03000228
KTPA 061453Z 25005KT 10SM SCT050 29/24 A3006 RMK AO2 RAE1357 SLP178 P0000 60016 T02890244 58000
KTPA 061353Z 00000KT 8SM -RA SCT040CB SCT075 SCT090 26/23 A3007 RMK AO2 RAB22 SLP181 CB E-S MOV E P0016 T02610233
KTPA 061343Z 22003KT 4SM -RA SCT035CB BKN049 BKN090 26/22 A3007 RMK AO2 RAB22 CB E-W MOV E P0014 T02610217
KTPA 061330Z 27007KT 2 1/2SM -RA SCT030CB BKN049 BKN065 27/23 A3007 RMK AO2 RAB22 CB E-W MOV E P0002 T02720233
KTPA 061253Z 35004KT 10SM SCT015TCU 28/23 A3007 RMK AO2 SLP181 TCU W AND NW T02830233
KTPA 061153Z 32003KT 10SM SCT020TCU SCT120 27/24 A3006 RMK AO2 SLP179 TCU SW T02720239 10272 20261 53013
KTPA 061053Z 34003KT 9SM SCT085 BKN120 26/24 A3004 RMK AO2 SLP173 T02610239
KTPA 060953Z 33004KT 10SM BKN090 BKN120 27/24 A3003 RMK AO2 SLP169 T02670239
KTPA 060853Z 33003KT 10SM BKN090 27/24 A3002 RMK AO2 SLP166 T02670244 53000
KTPA 060753Z 33003KT 10SM FEW014 OVC090 27/24 A3002 RMK AO2 SLP164 T02670244
KTPA 060724Z 26003KT 10SM SCT009 BKN090 OVC110 27/24 A3002 RMK AO2 T02670244
KTPA 060715Z 27003KT 10SM SCT009 BKN013 OVC110 27/24 A3002 RMK AO2 T02670244
KTPA 060653Z 28003KT 10SM BKN008 27/24 A3002 RMK AO2 SLP165 T02670244
KTPA 060553Z 21003KT 10SM FEW008 26/24 A3003 RMK AO2 SLP167 T02610244 10283 20261 56007
KTPA 060520Z 21003KT 10SM FEW009 27/24 A3003 RMK AO2 T02670244
KTPA 060453Z 21004KT 10SM CLR 27/24 A3003 RMK AO2 SLP169 T02670244 403280256
KTPA 060353Z 21003KT 10SM FEW011 SCT280 27/24 A3004 RMK AO2 SLP171 T02670239
KTPA 060253Z 22004KT 10SM FEW011 FEW280 27/24 A3005 RMK AO2 SLP174 T02670244 50006
KTPA 060153Z 26007KT 10SM FEW013 SCT280 28/24 A3005 RMK AO2 SLP176 T02780239
KTPA 060053Z 27011KT 10SM FEW014 SCT030 BKN280 28/24 A3005 RMK AO2 SLP176 T02830244